sensor_id;sensor_type;location;lat;lon;timestamp;pressure;altitude;pressure_sealevel;temperature;humidity
6028;BME280;3042;43.194;27.646;2023-04-29T00:01:56;101770.69;;;14.36;100.00
6028;BME280;3042;43.194;27.646;2023-04-29T00:04:25;101797.84;;;14.61;100.00
6028;BME280;3042;43.194;27.646;2023-04-29T00:06:53;101806.19;;;14.54;100.00
6028;BME280;3042;43.194;27.646;2023-04-29T00:09:20;101799.78;;;14.47;100.00
6028;BME280;3042;43.194;27.646;2023-04-29T00:11:47;101811.13;;;14.30;100.00
6028;BME280;3042;43.194;27.646;2023-04-29T00:14:15;101818.56;;;14.22;100.00
6028;BME280;3042;43.194;27.646;2023-04-29T00:16:43;101809.59;;;14.15;100.00
6028;BME280;3042;43.194;27.646;2023-04-29T00:19:10;101810.13;;;14.08;100.00
6028;BME280;3042;43.194;27.646;2023-04-29T00:21:39;101812.81;;;13.92;100.00
6028;BME280;3042;43.194;27.646;2023-04-29T00:24:06;101801.75;;;13.96;100.00
6028;BME280;3042;43.194;27.646;2023-04-29T00:26:33;101805.00;;;13.92;100.00
6028;BME280;3042;43.194;27.646;2023-04-29T00:29:00;101821.06;;;13.65;100.00
6028;BME280;3042;43.194;27.646;2023-04-29T00:31:28;101805.00;;;13.74;100.00
6028;BME280;3042;43.194;27.646;2023-04-29T00:33:57;101591.94;;;12.45;100.00
6028;BME280;3042;43.194;27.646;2023-04-29T00:36:24;101812.34;;;13.65;100.00
6028;BME280;3042;43.194;27.646;2023-04-29T00:38:53;101811.19;;;13.58;100.00
6028;BME280;3042;43.194;27.646;2023-04-29T00:41:21;101818.50;;;13.49;100.00
6028;BME280;3042;43.194;27.646;2023-04-29T00:43:48;101817.88;;;13.20;100.00
6028;BME280;3042;43.194;27.646;2023-04-29T00:46:15;101811.88;;;13.38;100.00
6028;BME280;3042;43.194;27.646;2023-04-29T00:48:42;101827.81;;;13.11;100.00
6028;BME280;3042;43.194;27.646;2023-04-29T00:51:10;101816.84;;;13.17;100.00
6028;BME280;3042;43.194;27.646;2023-04-29T00:53:38;101814.16;;;13.15;100.00
6028;BME280;3042;43.194;27.646;2023-04-29T00:56:07;101824.06;;;13.06;100.00
6028;BME280;3042;43.194;27.646;2023-04-29T00:58:35;101787.38;;;12.82;100.00
6028;BME280;3042;43.194;27.646;2023-04-29T01:01:04;101821.00;;;12.80;100.00
6028;BME280;3042;43.194;27.646;2023-04-29T01:03:31;101820.75;;;12.92;100.00
6028;BME280;3042;43.194;27.646;2023-04-29T01:06:08;101811.19;;;13.07;100.00
6028;BME280;3042;43.194;27.646;2023-04-29T01:08:47;101831.06;;;12.74;100.00
6028;BME280;3042;43.194;27.646;2023-04-29T01:11:20;101823.09;;;12.71;100.00
6028;BME280;3042;43.194;27.646;2023-04-29T01:13:49;101812.28;;;12.78;100.00
6028;BME280;3042;43.194;27.646;2023-04-29T01:16:22;101816.47;;;12.60;100.00
6028;BME280;3042;43.194;27.646;2023-04-29T01:18:53;101784.38;;;12.41;100.00
6028;BME280;3042;43.194;27.646;2023-04-29T01:21:21;101805.94;;;12.73;100.00
6028;BME280;3042;43.194;27.646;2023-04-29T01:23:51;101795.72;;;12.93;100.00
6028;BME280;3042;43.194;27.646;2023-04-29T01:26:21;101801.91;;;12.78;100.00
6028;BME280;3042;43.194;27.646;2023-04-29T01:28:53;101781.25;;;13.14;100.00
6028;BME280;3042;43.194;27.646;2023-04-29T01:31:26;101793.38;;;12.97;100.00
6028;BME280;3042;43.194;27.646;2023-04-29T01:34:06;101680.72;;;12.09;100.00
6028;BME280;3042;43.194;27.646;2023-04-29T01:36:42;101802.69;;;12.77;100.00
6028;BME280;3042;43.194;27.646;2023-04-29T01:39:20;101755.88;;;13.08;100.00
6028;BME280;3042;43.194;27.646;2023-04-29T01:41:56;101771.88;;;13.00;100.00
6028;BME280;3042;43.194;27.646;2023-04-29T01:44:27;101784.13;;;13.20;100.00
6028;BME280;3042;43.194;27.646;2023-04-29T01:46:56;101808.84;;;12.46;100.00
6028;BME280;3042;43.194;27.646;2023-04-29T01:49:24;101612.56;;;11.14;100.00
6028;BME280;3042;43.194;27.646;2023-04-29T01:51:52;101807.88;;;12.61;100.00
6028;BME280;3042;43.194;27.646;2023-04-29T01:54:21;101826.00;;;11.97;100.00
6028;BME280;3042;43.194;27.646;2023-04-29T01:56:48;101796.22;;;11.59;100.00
6028;BME280;3042;43.194;27.646;2023-04-29T01:59:16;101833.97;;;11.40;100.00
6028;BME280;3042;43.194;27.646;2023-04-29T02:01:43;101814.22;;;11.57;100.00
6028;BME280;3042;43.194;27.646;2023-04-29T02:04:10;101816.38;;;11.65;100.00
6028;BME280;3042;43.194;27.646;2023-04-29T02:06:37;101768.88;;;11.49;100.00
6028;BME280;3042;43.194;27.646;2023-04-29T02:09:05;101816.00;;;11.58;100.00
6028;BME280;3042;43.194;27.646;2023-04-29T02:11:33;101798.47;;;11.84;100.00
6028;BME280;3042;43.194;27.646;2023-04-29T02:14:00;101794.50;;;12.06;100.00
6028;BME280;3042;43.194;27.646;2023-04-29T02:16:27;101747.75;;;11.73;100.00
6028;BME280;3042;43.194;27.646;2023-04-29T02:18:54;101749.94;;;11.80;100.00
6028;BME280;3042;43.194;27.646;2023-04-29T02:21:22;101780.72;;;12.38;100.00
6028;BME280;3042;43.194;27.646;2023-04-29T02:23:49;101758.19;;;12.04;100.00
6028;BME280;3042;43.194;27.646;2023-04-29T02:26:16;101785.59;;;12.32;100.00
6028;BME280;3042;43.194;27.646;2023-04-29T02:28:45;101739.34;;;12.39;100.00
6028;BME280;3042;43.194;27.646;2023-04-29T02:31:12;101720.88;;;12.33;100.00
6028;BME280;3042;43.194;27.646;2023-04-29T02:33:39;101790.53;;;12.27;100.00
6028;BME280;3042;43.194;27.646;2023-04-29T02:36:06;101721.31;;;11.93;100.00
6028;BME280;3042;43.194;27.646;2023-04-29T02:38:33;101780.47;;;12.50;100.00
6028;BME280;3042;43.194;27.646;2023-04-29T02:41:00;101752.44;;;12.26;100.00
6028;BME280;3042;43.194;27.646;2023-04-29T02:43:27;101763.56;;;11.92;100.00
6028;BME280;3042;43.194;27.646;2023-04-29T02:45:57;101806.53;;;11.74;100.00
6028;BME280;3042;43.194;27.646;2023-04-29T02:48:24;101798.69;;;11.87;100.00
6028;BME280;3042;43.194;27.646;2023-04-29T02:50:51;101778.59;;;11.53;100.00
6028;BME280;3042;43.194;27.646;2023-04-29T02:53:18;101805.28;;;11.67;100.00
6028;BME280;3042;43.194;27.646;2023-04-29T02:55:46;101811.34;;;11.68;100.00
6028;BME280;3042;43.194;27.646;2023-04-29T02:58:14;101784.00;;;12.02;100.00
6028;BME280;3042;43.194;27.646;2023-04-29T03:00:41;101791.66;;;12.01;100.00
6028;BME280;3042;43.194;27.646;2023-04-29T03:03:09;101782.31;;;12.19;100.00
6028;BME280;3042;43.194;27.646;2023-04-29T03:05:37;101770.91;;;11.70;100.00
6028;BME280;3042;43.194;27.646;2023-04-29T03:08:04;101708.00;;;11.56;100.00
6028;BME280;3042;43.194;27.646;2023-04-29T03:10:31;101770.53;;;12.24;100.00
6028;BME280;3042;43.194;27.646;2023-04-29T03:12:58;101814.91;;;11.70;100.00
6028;BME280;3042;43.194;27.646;2023-04-29T03:15:25;101803.13;;;11.75;100.00
6028;BME280;3042;43.194;27.646;2023-04-29T03:17:52;101778.63;;;11.38;100.00
6028;BME280;3042;43.194;27.646;2023-04-29T03:20:21;101806.53;;;11.74;100.00
6028;BME280;3042;43.194;27.646;2023-04-29T03:22:49;101783.78;;;12.14;100.00
6028;BME280;3042;43.194;27.646;2023-04-29T03:25:16;101777.09;;;12.34;100.00
6028;BME280;3042;43.194;27.646;2023-04-29T03:27:43;101775.06;;;12.45;100.00
6028;BME280;3042;43.194;27.646;2023-04-29T03:30:10;101758.66;;;12.95;100.00
6028;BME280;3042;43.194;27.646;2023-04-29T03:32:38;101762.13;;;13.12;100.00
6028;BME280;3042;43.194;27.646;2023-04-29T03:35:05;101764.19;;;13.19;100.00
6028;BME280;3042;43.194;27.646;2023-04-29T03:37:34;101757.13;;;13.33;100.00
6028;BME280;3042;43.194;27.646;2023-04-29T03:40:01;101758.63;;;13.46;100.00
6028;BME280;3042;43.194;27.646;2023-04-29T03:42:28;101754.25;;;13.45;100.00
6028;BME280;3042;43.194;27.646;2023-04-29T03:44:56;101744.63;;;13.98;100.00
6028;BME280;3042;43.194;27.646;2023-04-29T03:47:23;101751.28;;;13.91;100.00
6028;BME280;3042;43.194;27.646;2023-04-29T03:49:50;101747.34;;;14.19;100.00
6028;BME280;3042;43.194;27.646;2023-04-29T03:52:18;101736.81;;;14.35;100.00
6028;BME280;3042;43.194;27.646;2023-04-29T03:54:46;101724.06;;;14.99;100.00
6028;BME280;3042;43.194;27.646;2023-04-29T03:57:13;101673.63;;;14.97;100.00
6028;BME280;3042;43.194;27.646;2023-04-29T03:59:41;101538.22;;;14.73;100.00
6028;BME280;3042;43.194;27.646;2023-04-29T04:02:08;101716.84;;;16.24;98.34
6028;BME280;3042;43.194;27.646;2023-04-29T04:04:35;101672.72;;;16.31;93.95
6028;BME280;3042;43.194;27.646;2023-04-29T04:07:02;101520.44;;;16.00;92.38
6028;BME280;3042;43.194;27.646;2023-04-29T04:09:29;101699.22;;;17.17;88.57
6028;BME280;3042;43.194;27.646;2023-04-29T04:11:59;101683.22;;;17.62;87.16
6028;BME280;3042;43.194;27.646;2023-04-29T04:14:27;101677.19;;;17.91;86.25
6028;BME280;3042;43.194;27.646;2023-04-29T04:16:54;101637.94;;;18.23;84.85
6028;BME280;3042;43.194;27.646;2023-04-29T04:19:21;101657.31;;;18.95;83.58
6028;BME280;3042;43.194;27.646;2023-04-29T04:21:48;101649.69;;;19.42;80.44
6028;BME280;3042;43.194;27.646;2023-04-29T04:24:15;101642.13;;;19.95;78.59
6028;BME280;3042;43.194;27.646;2023-04-29T04:26:42;101622.50;;;20.69;75.20
6028;BME280;3042;43.194;27.646;2023-04-29T04:29:11;101604.69;;;21.65;74.29
6028;BME280;3042;43.194;27.646;2023-04-29T04:31:38;101594.13;;;22.37;70.32
6028;BME280;3042;43.194;27.646;2023-04-29T04:34:05;101570.22;;;23.30;68.01
6028;BME280;3042;43.194;27.646;2023-04-29T04:36:32;101493.97;;;24.07;66.36
6028;BME280;3042;43.194;27.646;2023-04-29T04:39:00;101562.50;;;25.48;62.65
6028;BME280;3042;43.194;27.646;2023-04-29T04:41:27;101558.88;;;25.71;58.71
6028;BME280;3042;43.194;27.646;2023-04-29T04:43:56;101557.81;;;26.03;57.29
6028;BME280;3042;43.194;27.646;2023-04-29T04:46:24;101456.84;;;24.98;55.80
6028;BME280;3042;43.194;27.646;2023-04-29T04:48:51;101599.66;;;25.18;55.38
6028;BME280;3042;43.194;27.646;2023-04-29T04:51:19;101602.28;;;25.13;56.21
6028;BME280;3042;43.194;27.646;2023-04-29T04:53:48;101640.97;;;24.16;55.41
6028;BME280;3042;43.194;27.646;2023-04-29T04:56:16;101637.47;;;24.32;56.89
6028;BME280;3042;43.194;27.646;2023-04-29T04:58:43;101621.72;;;24.61;57.02
6028;BME280;3042;43.194;27.646;2023-04-29T05:01:10;101608.47;;;24.95;56.98
6028;BME280;3042;43.194;27.646;2023-04-29T05:03:39;101602.28;;;24.95;55.26
6028;BME280;3042;43.194;27.646;2023-04-29T05:06:06;101589.06;;;25.21;54.67
6028;BME280;3042;43.194;27.646;2023-04-29T05:08:36;101570.34;;;25.72;54.13
6028;BME280;3042;43.194;27.646;2023-04-29T05:11:15;101574.72;;;25.74;53.48
6028;BME280;3042;43.194;27.646;2023-04-29T05:13:43;101587.25;;;25.43;51.77
6028;BME280;3042;43.194;27.646;2023-04-29T05:16:12;101542.28;;;25.34;52.61
6028;BME280;3042;43.194;27.646;2023-04-29T05:18:43;101543.13;;;25.37;52.89
6028;BME280;3042;43.194;27.646;2023-04-29T05:21:11;101546.69;;;25.36;52.49
6028;BME280;3042;43.194;27.646;2023-04-29T05:23:38;101592.53;;;25.38;52.37
6028;BME280;3042;43.194;27.646;2023-04-29T05:26:05;101604.94;;;25.18;52.92
6028;BME280;3042;43.194;27.646;2023-04-29T05:28:32;101626.13;;;24.78;53.42
6028;BME280;3042;43.194;27.646;2023-04-29T05:30:59;101022.19;;;21.06;53.33
6028;BME280;3042;43.194;27.646;2023-04-29T05:33:27;101571.44;;;24.34;54.38
6028;BME280;3042;43.194;27.646;2023-04-29T05:35:55;101550.28;;;24.18;55.35
6028;BME280;3042;43.194;27.646;2023-04-29T05:38:22;101609.38;;;24.90;55.07
6028;BME280;3042;43.194;27.646;2023-04-29T05:40:55;101465.78;;;24.15;55.44
6028;BME280;3042;43.194;27.646;2023-04-29T05:43:23;101508.94;;;24.63;55.92
6028;BME280;3042;43.194;27.646;2023-04-29T05:45:51;101595.19;;;25.17;54.31
6028;BME280;3042;43.194;27.646;2023-04-29T05:48:18;101352.22;;;23.63;54.76
6028;BME280;3042;43.194;27.646;2023-04-29T05:50:47;101607.56;;;25.04;54.37
6028;BME280;3042;43.194;27.646;2023-04-29T05:53:17;101513.31;;;24.63;54.20
6028;BME280;3042;43.194;27.646;2023-04-29T05:55:45;101593.44;;;25.14;54.44
6028;BME280;3042;43.194;27.646;2023-04-29T05:58:12;101530.94;;;24.73;54.89
6028;BME280;3042;43.194;27.646;2023-04-29T06:00:40;101468.38;;;24.78;54.23
6028;BME280;3042;43.194;27.646;2023-04-29T06:03:08;101452.38;;;25.12;55.03
6028;BME280;3042;43.194;27.646;2023-04-29T06:05:36;101536.72;;;25.92;53.30
6028;BME280;3042;43.194;27.646;2023-04-29T06:08:06;101551.66;;;26.02;52.53
6028;BME280;3042;43.194;27.646;2023-04-29T06:10:35;101596.13;;;24.93;49.88
6028;BME280;3042;43.194;27.646;2023-04-29T06:13:03;101386.34;;;22.92;50.40
6028;BME280;3042;43.194;27.646;2023-04-29T06:15:30;101588.19;;;24.79;52.52
6028;BME280;3042;43.194;27.646;2023-04-29T06:17:57;101586.41;;;24.99;50.96
6028;BME280;3042;43.194;27.646;2023-04-29T06:20:24;101584.69;;;24.84;49.94
6028;BME280;3042;43.194;27.646;2023-04-29T06:23:30;101566.03;;;25.51;51.08
6028;BME280;3042;43.194;27.646;2023-04-29T06:25:59;101539.03;;;26.37;51.22
6028;BME280;3042;43.194;27.646;2023-04-29T06:28:26;101538.97;;;26.46;49.97
6028;BME280;3042;43.194;27.646;2023-04-29T06:30:54;101523.47;;;26.95;49.37
6028;BME280;3042;43.194;27.646;2023-04-29T06:33:22;101540.22;;;27.02;48.62
6028;BME280;3042;43.194;27.646;2023-04-29T06:35:49;101513.72;;;27.69;48.36
6028;BME280;3042;43.194;27.646;2023-04-29T06:38:16;101515.25;;;28.42;46.44
6028;BME280;3042;43.194;27.646;2023-04-29T06:40:43;101513.91;;;29.16;47.24
6028;BME280;3042;43.194;27.646;2023-04-29T06:43:12;101505.44;;;29.80;46.49
6028;BME280;3042;43.194;27.646;2023-04-29T06:45:39;101488.28;;;29.53;45.51
6028;BME280;3042;43.194;27.646;2023-04-29T06:48:07;101547.38;;;29.30;45.54
6028;BME280;3042;43.194;27.646;2023-04-29T06:50:34;101456.41;;;28.11;45.54
6028;BME280;3042;43.194;27.646;2023-04-29T06:53:01;101593.06;;;27.95;46.62
6028;BME280;3042;43.194;27.646;2023-04-29T06:55:28;101604.19;;;27.56;45.82
6028;BME280;3042;43.194;27.646;2023-04-29T06:57:56;101611.75;;;27.11;46.39
6028;BME280;3042;43.194;27.646;2023-04-29T07:00:24;101518.78;;;26.26;46.93
6028;BME280;3042;43.194;27.646;2023-04-29T07:02:51;101639.81;;;26.24;47.14
6028;BME280;3042;43.194;27.646;2023-04-29T07:05:21;101634.56;;;26.15;47.61
6028;BME280;3042;43.194;27.646;2023-04-29T07:07:48;101636.56;;;25.64;48.03
6028;BME280;3042;43.194;27.646;2023-04-29T07:10:15;101658.72;;;25.29;49.90
6028;BME280;3042;43.194;27.646;2023-04-29T07:12:42;101664.88;;;24.70;48.82
6028;BME280;3042;43.194;27.646;2023-04-29T07:15:09;101625.22;;;24.48;49.54
6028;BME280;3042;43.194;27.646;2023-04-29T07:17:38;101664.88;;;24.67;50.21
6028;BME280;3042;43.194;27.646;2023-04-29T07:20:06;101665.75;;;24.56;49.50
6028;BME280;3042;43.194;27.646;2023-04-29T07:22:33;101671.91;;;24.49;48.50
6028;BME280;3042;43.194;27.646;2023-04-29T07:25:01;101562.25;;;23.18;48.77
6028;BME280;3042;43.194;27.646;2023-04-29T07:27:29;101692.59;;;23.57;49.54
6028;BME280;3042;43.194;27.646;2023-04-29T07:29:58;101687.03;;;23.14;50.20
6028;BME280;3042;43.194;27.646;2023-04-29T07:32:25;101681.78;;;23.14;51.40
6028;BME280;3042;43.194;27.646;2023-04-29T07:34:54;101669.63;;;23.34;50.73
6028;BME280;3042;43.194;27.646;2023-04-29T07:37:21;101668.72;;;23.35;50.00
6028;BME280;3042;43.194;27.646;2023-04-29T07:39:49;101677.34;;;23.10;50.48
6028;BME280;3042;43.194;27.646;2023-04-29T07:42:16;101602.34;;;22.74;50.57
6028;BME280;3042;43.194;27.646;2023-04-29T07:44:43;101666.13;;;23.42;50.69
6028;BME280;3042;43.194;27.646;2023-04-29T07:47:11;101695.25;;;22.54;50.89
6028;BME280;3042;43.194;27.646;2023-04-29T07:49:38;101699.44;;;22.34;50.80
6028;BME280;3042;43.194;27.646;2023-04-29T07:52:08;101627.50;;;21.68;51.41
6028;BME280;3042;43.194;27.646;2023-04-29T07:54:35;101685.41;;;22.37;52.10
6028;BME280;3042;43.194;27.646;2023-04-29T07:57:03;101676.88;;;22.61;52.00
6028;BME280;3042;43.194;27.646;2023-04-29T07:59:30;101681.75;;;22.22;51.77
6028;BME280;3042;43.194;27.646;2023-04-29T08:01:57;101497.25;;;21.27;53.12
6028;BME280;3042;43.194;27.646;2023-04-29T08:04:25;101686.22;;;22.31;51.43
6028;BME280;3042;43.194;27.646;2023-04-29T08:06:52;101673.84;;;22.22;50.98
6028;BME280;3042;43.194;27.646;2023-04-29T08:09:20;101682.56;;;22.20;51.22
6028;BME280;3042;43.194;27.646;2023-04-29T08:11:47;101669.34;;;22.17;51.39
6028;BME280;3042;43.194;27.646;2023-04-29T08:14:15;101687.16;;;21.67;50.18
6028;BME280;3042;43.194;27.646;2023-04-29T08:16:42;101597.94;;;21.23;51.25
6028;BME280;3042;43.194;27.646;2023-04-29T08:19:09;101689.34;;;21.38;51.14
6028;BME280;3042;43.194;27.646;2023-04-29T08:21:36;101691.75;;;21.24;51.61
6028;BME280;3042;43.194;27.646;2023-04-29T08:24:03;101468.09;;;20.47;51.81
6028;BME280;3042;43.194;27.646;2023-04-29T08:26:34;101478.47;;;20.98;52.63
6028;BME280;3042;43.194;27.646;2023-04-29T08:29:01;101650.66;;;21.95;51.82
6028;BME280;3042;43.194;27.646;2023-04-29T08:31:31;101649.06;;;22.06;51.30
6028;BME280;3042;43.194;27.646;2023-04-29T08:33:59;101640.50;;;22.23;52.80
6028;BME280;3042;43.194;27.646;2023-04-29T08:36:26;101660.16;;;21.84;51.53
6028;BME280;3042;43.194;27.646;2023-04-29T08:38:54;101648.06;;;21.98;52.15
6028;BME280;3042;43.194;27.646;2023-04-29T08:41:21;101648.06;;;21.97;52.17
6028;BME280;3042;43.194;27.646;2023-04-29T08:43:51;101634.97;;;22.01;53.29
6028;BME280;3042;43.194;27.646;2023-04-29T08:46:21;101541.84;;;21.90;50.66
6028;BME280;3042;43.194;27.646;2023-04-29T08:48:57;101640.34;;;22.13;53.12
6028;BME280;3042;43.194;27.646;2023-04-29T08:51:24;101600.38;;;22.51;52.81
6028;BME280;3042;43.194;27.646;2023-04-29T08:53:52;101589.91;;;22.58;53.70
6028;BME280;3042;43.194;27.646;2023-04-29T08:56:19;101591.97;;;22.95;52.36
6028;BME280;3042;43.194;27.646;2023-04-29T08:58:56;101595.28;;;22.70;52.59
6028;BME280;3042;43.194;27.646;2023-04-29T09:01:26;101605.63;;;22.48;53.33
6028;BME280;3042;43.194;27.646;2023-04-29T09:04:03;101599.63;;;22.65;53.25
6028;BME280;3042;43.194;27.646;2023-04-29T09:06:33;101586.59;;;22.83;52.54
6028;BME280;3042;43.194;27.646;2023-04-29T09:09:01;101608.78;;;22.15;52.52
6028;BME280;3042;43.194;27.646;2023-04-29T09:11:29;101611.28;;;22.03;53.45
6028;BME280;3042;43.194;27.646;2023-04-29T09:14:00;101531.09;;;21.68;53.43
6028;BME280;3042;43.194;27.646;2023-04-29T09:19:50;101602.63;;;22.14;54.02
6028;BME280;3042;43.194;27.646;2023-04-29T09:22:17;101563.13;;;22.14;53.82
6028;BME280;3042;43.194;27.646;2023-04-29T09:24:53;101544.81;;;22.21;54.03
6028;BME280;3042;43.194;27.646;2023-04-29T09:27:34;101534.75;;;21.83;54.59
6028;BME280;3042;43.194;27.646;2023-04-29T09:30:03;101586.72;;;22.02;54.69
6028;BME280;3042;43.194;27.646;2023-04-29T09:32:31;101565.97;;;22.30;53.51
6028;BME280;3042;43.194;27.646;2023-04-29T09:34:58;101573.78;;;22.24;55.10
6028;BME280;3042;43.194;27.646;2023-04-29T09:37:45;101573.72;;;22.18;55.21
6028;BME280;3042;43.194;27.646;2023-04-29T09:40:26;101536.19;;;22.37;54.95
6028;BME280;3042;43.194;27.646;2023-04-29T09:42:55;101559.91;;;22.40;53.53
6028;BME280;3042;43.194;27.646;2023-04-29T09:45:37;101545.13;;;22.58;53.87
6028;BME280;3042;43.194;27.646;2023-04-29T09:48:08;101564.94;;;22.19;54.12
6028;BME280;3042;43.194;27.646;2023-04-29T09:50:36;101544.03;;;22.29;53.26
6028;BME280;3042;43.194;27.646;2023-04-29T09:53:03;101528.41;;;22.52;53.41
6028;BME280;3042;43.194;27.646;2023-04-29T09:55:32;101478.25;;;22.37;53.96
6028;BME280;3042;43.194;27.646;2023-04-29T09:57:59;101532.78;;;22.50;53.20
6028;BME280;3042;43.194;27.646;2023-04-29T10:00:30;101525.94;;;22.74;53.35
6028;BME280;3042;43.194;27.646;2023-04-29T10:03:01;101485.44;;;22.63;54.02
6028;BME280;3042;43.194;27.646;2023-04-29T10:05:30;101530.00;;;22.35;54.74
6028;BME280;3042;43.194;27.646;2023-04-29T10:07:58;101480.78;;;22.25;53.85
6028;BME280;3042;43.194;27.646;2023-04-29T10:10:26;101526.59;;;22.47;54.55
6028;BME280;3042;43.194;27.646;2023-04-29T10:12:54;101520.50;;;22.51;54.36
6028;BME280;3042;43.194;27.646;2023-04-29T10:15:26;101430.84;;;22.37;53.62
6028;BME280;3042;43.194;27.646;2023-04-29T10:18:02;101493.53;;;22.93;54.59
6028;BME280;3042;43.194;27.646;2023-04-29T10:20:35;101461.03;;;22.93;54.42
6028;BME280;3042;43.194;27.646;2023-04-29T10:23:05;101526.94;;;21.90;54.29
6028;BME280;3042;43.194;27.646;2023-04-29T10:25:37;101407.72;;;21.99;53.79
6028;BME280;3042;43.194;27.646;2023-04-29T10:28:08;101478.94;;;22.18;53.73
6028;BME280;3042;43.194;27.646;2023-04-29T10:30:41;101319.00;;;21.89;54.38
6028;BME280;3042;43.194;27.646;2023-04-29T10:33:11;101498.75;;;22.81;53.98
6028;BME280;3042;43.194;27.646;2023-04-29T10:35:42;101503.03;;;22.67;53.66
6028;BME280;3042;43.194;27.646;2023-04-29T10:38:16;101475.94;;;22.89;53.68
6028;BME280;3042;43.194;27.646;2023-04-29T10:40:46;101433.88;;;23.02;54.52
6028;BME280;3042;43.194;27.646;2023-04-29T10:43:15;101462.94;;;23.23;54.26
6028;BME280;3042;43.194;27.646;2023-04-29T10:45:42;101447.22;;;23.54;54.40
6028;BME280;3042;43.194;27.646;2023-04-29T10:48:12;101306.28;;;22.58;53.28
6028;BME280;3042;43.194;27.646;2023-04-29T10:51:00;101292.09;;;22.25;55.07
6028;BME280;3042;43.194;27.646;2023-04-29T10:53:28;101448.03;;;23.30;53.13
6028;BME280;3042;43.194;27.646;2023-04-29T10:55:58;101470.78;;;23.08;54.99
6028;BME280;3042;43.194;27.646;2023-04-29T10:58:42;101454.22;;;23.47;55.19
6028;BME280;3042;43.194;27.646;2023-04-29T11:01:11;101449.81;;;23.48;54.89
6028;BME280;3042;43.194;27.646;2023-04-29T11:03:52;101433.22;;;23.76;53.68
6028;BME280;3042;43.194;27.646;2023-04-29T11:06:24;101397.16;;;23.82;54.16
6028;BME280;3042;43.194;27.646;2023-04-29T11:09:02;101416.50;;;23.99;54.60
6028;BME280;3042;43.194;27.646;2023-04-29T11:11:44;101409.44;;;23.95;53.36
6028;BME280;3042;43.194;27.646;2023-04-29T11:14:12;101420.84;;;23.71;51.61
6028;BME280;3042;43.194;27.646;2023-04-29T11:16:51;101361.03;;;23.54;53.44
6028;BME280;3042;43.194;27.646;2023-04-29T11:19:30;101406.78;;;23.81;52.41
6028;BME280;3042;43.194;27.646;2023-04-29T11:22:24;101404.16;;;23.92;53.30
6028;BME280;3042;43.194;27.646;2023-04-29T11:24:56;101416.44;;;23.68;51.43
6028;BME280;3042;43.194;27.646;2023-04-29T11:27:26;101384.75;;;23.62;50.98
6028;BME280;3042;43.194;27.646;2023-04-29T11:29:56;101418.19;;;23.66;52.26
6028;BME280;3042;43.194;27.646;2023-04-29T11:32:27;101398.00;;;23.97;51.80
6028;BME280;3042;43.194;27.646;2023-04-29T11:35:09;101341.72;;;23.82;50.91
6028;BME280;3042;43.194;27.646;2023-04-29T11:37:36;101402.41;;;23.85;51.38
6028;BME280;3042;43.194;27.646;2023-04-29T11:40:10;101241.44;;;23.06;51.69
6028;BME280;3042;43.194;27.646;2023-04-29T11:42:46;101272.19;;;23.55;51.34
6028;BME280;3042;43.194;27.646;2023-04-29T11:45:22;101383.06;;;23.92;51.35
6028;BME280;3042;43.194;27.646;2023-04-29T11:47:49;101368.09;;;23.89;51.42
6028;BME280;3042;43.194;27.646;2023-04-29T11:50:21;101383.06;;;23.76;51.90
6028;BME280;3042;43.194;27.646;2023-04-29T11:52:50;101365.47;;;23.85;51.82
6028;BME280;3042;43.194;27.646;2023-04-29T11:55:18;101360.16;;;24.12;53.39
6028;BME280;3042;43.194;27.646;2023-04-29T11:57:47;101219.44;;;23.49;51.19
6028;BME280;3042;43.194;27.646;2023-04-29T12:00:15;101164.09;;;23.04;51.56
6028;BME280;3042;43.194;27.646;2023-04-29T12:02:43;101336.31;;;24.34;52.65
6028;BME280;3042;43.194;27.646;2023-04-29T12:05:11;101102.53;;;23.27;51.23
6028;BME280;3042;43.194;27.646;2023-04-29T12:07:42;101287.09;;;24.02;51.57
6028;BME280;3042;43.194;27.646;2023-04-29T12:10:14;101356.56;;;24.38;50.91
6028;BME280;3042;43.194;27.646;2023-04-29T12:12:48;101232.66;;;23.12;50.13
6028;BME280;3042;43.194;27.646;2023-04-29T12:15:16;101339.00;;;24.18;50.22
6028;BME280;3042;43.194;27.646;2023-04-29T12:17:48;101318.69;;;24.43;50.47
6028;BME280;3042;43.194;27.646;2023-04-29T12:20:16;101289.78;;;23.93;50.53
6028;BME280;3042;43.194;27.646;2023-04-29T12:23:10;101240.50;;;23.89;49.82
6028;BME280;3042;43.194;27.646;2023-04-29T12:25:37;101325.78;;;24.18;49.60
6028;BME280;3042;43.194;27.646;2023-04-29T12:28:11;101308.09;;;24.51;49.02
6028;BME280;3042;43.194;27.646;2023-04-29T12:30:38;101307.25;;;24.49;49.88
6028;BME280;3042;43.194;27.646;2023-04-29T12:33:07;101208.00;;;23.53;51.17
6028;BME280;3042;43.194;27.646;2023-04-29T12:35:36;101325.84;;;23.94;50.66
6028;BME280;3042;43.194;27.646;2023-04-29T12:38:05;101148.25;;;23.15;51.49
6028;BME280;3042;43.194;27.646;2023-04-29T12:40:34;101326.69;;;24.02;51.59
6028;BME280;3042;43.194;27.646;2023-04-29T12:43:06;101322.31;;;24.04;50.71
6028;BME280;3042;43.194;27.646;2023-04-29T12:45:33;101316.13;;;24.16;48.99
6028;BME280;3042;43.194;27.646;2023-04-29T12:48:01;101316.13;;;24.08;49.13
6028;BME280;3042;43.194;27.646;2023-04-29T12:50:32;101307.31;;;24.21;48.41
6028;BME280;3042;43.194;27.646;2023-04-29T12:53:01;101302.81;;;24.43;48.94
6028;BME280;3042;43.194;27.646;2023-04-29T12:55:32;101310.81;;;24.27;48.64
6028;BME280;3042;43.194;27.646;2023-04-29T12:58:00;101301.19;;;24.06;49.25
6028;BME280;3042;43.194;27.646;2023-04-29T13:00:27;101165.00;;;23.06;50.35
6028;BME280;3042;43.194;27.646;2023-04-29T13:02:54;101288.75;;;24.38;50.30
6028;BME280;3042;43.194;27.646;2023-04-29T13:05:22;101292.28;;;24.42;49.89
6028;BME280;3042;43.194;27.646;2023-04-29T13:07:49;101270.16;;;24.64;49.87
6028;BME280;3042;43.194;27.646;2023-04-29T13:10:25;101263.91;;;24.81;50.07
6028;BME280;3042;43.194;27.646;2023-04-29T13:12:55;101297.56;;;24.42;48.40